createdAt,value
2023-05-12T00:00:46.815Z,35.69
2023-05-12T00:01:46.844Z,35.67
2023-05-12T00:02:46.950Z,35.81
2023-05-12T00:03:47.204Z,35.82
2023-05-12T00:04:47.014Z,35.84
2023-05-12T00:05:46.938Z,35.87
2023-05-12T00:06:46.958Z,35.76
2023-05-12T00:07:47.034Z,35.66
2023-05-12T00:08:46.989Z,35.75
2023-05-12T00:09:47.022Z,35.85
2023-05-12T00:10:47.060Z,35.70
2023-05-12T00:11:47.086Z,35.77
2023-05-12T00:12:47.125Z,35.86
2023-05-12T00:13:47.188Z,35.72
2023-05-12T00:14:47.145Z,35.71
2023-05-12T00:15:47.174Z,35.74
2023-05-12T00:16:47.301Z,35.77
2023-05-12T00:17:47.315Z,35.77
2023-05-12T00:18:47.291Z,35.82
2023-05-12T00:19:47.245Z,35.78
2023-05-12T00:20:47.319Z,35.73
2023-05-12T00:21:47.290Z,35.75
2023-05-12T00:22:47.316Z,35.72
2023-05-12T00:23:47.321Z,35.77
2023-05-12T00:24:47.333Z,35.66
2023-05-12T00:25:47.364Z,35.68
2023-05-12T00:26:47.371Z,35.80
2023-05-12T00:27:47.400Z,35.77
2023-05-12T00:28:47.426Z,35.73
2023-05-12T00:29:47.442Z,35.81
2023-05-12T00:30:47.475Z,35.89
2023-05-12T00:31:47.547Z,35.88
2023-05-12T00:32:47.541Z,35.93
2023-05-12T00:33:47.547Z,35.88
2023-05-12T00:34:47.552Z,35.86
2023-05-12T00:35:47.584Z,35.90
2023-05-12T00:36:47.582Z,35.76
2023-05-12T00:37:47.616Z,35.81
2023-05-12T00:38:47.636Z,35.85
2023-05-12T00:39:47.652Z,35.86
2023-05-12T00:40:47.693Z,35.68
2023-05-12T00:41:47.704Z,35.83
2023-05-12T00:42:47.734Z,35.84
2023-05-12T00:43:47.737Z,35.80
2023-05-12T00:44:47.854Z,35.90
2023-05-12T00:45:47.789Z,35.91
2023-05-12T00:46:47.803Z,35.88
2023-05-12T00:47:47.864Z,35.85
2023-05-12T00:48:47.853Z,35.75
2023-05-12T00:49:47.876Z,35.74
2023-05-12T00:50:47.930Z,35.71
2023-05-12T00:51:47.925Z,35.69
2023-05-12T00:52:47.928Z,35.74
2023-05-12T00:53:50.199Z,35.82
2023-05-12T00:54:47.990Z,35.80
2023-05-12T00:55:47.995Z,35.80
2023-05-12T00:56:48.026Z,35.80
2023-05-12T00:57:48.055Z,35.68
2023-05-12T00:58:48.068Z,35.75
2023-05-12T00:59:48.204Z,35.74
2023-05-12T01:00:48.240Z,35.73
2023-05-12T01:01:48.140Z,35.72
2023-05-12T01:02:48.275Z,35.75
2023-05-12T01:03:48.217Z,35.80
2023-05-12T01:04:48.209Z,35.83
2023-05-12T01:05:48.202Z,35.78
2023-05-12T01:06:48.177Z,35.79
2023-05-12T01:07:48.170Z,35.80
2023-05-12T01:08:48.144Z,35.82
2023-05-12T01:09:48.122Z,35.82
2023-05-12T01:10:48.122Z,35.72
2023-05-12T01:11:48.132Z,35.81
2023-05-12T01:12:48.094Z,35.83
2023-05-12T01:13:48.057Z,35.69
2023-05-12T01:14:48.056Z,35.82
2023-05-12T01:15:48.039Z,35.83
2023-05-12T01:16:48.053Z,35.78
2023-05-12T01:17:48.157Z,35.75
2023-05-12T01:18:48.007Z,35.72
2023-05-12T01:19:47.970Z,35.71
2023-05-12T01:20:47.971Z,35.81
2023-05-12T01:21:47.936Z,35.80
2023-05-12T01:22:47.909Z,35.77
2023-05-12T01:23:47.935Z,35.81
2023-05-12T01:24:47.884Z,35.85
2023-05-12T01:25:47.852Z,35.72
2023-05-12T01:26:47.839Z,35.74
2023-05-12T01:27:47.816Z,35.71
2023-05-12T01:28:47.805Z,35.72
2023-05-12T01:29:47.777Z,35.75
2023-05-12T01:30:47.822Z,35.73
2023-05-12T01:31:47.907Z,35.76
2023-05-12T01:32:47.771Z,35.89
2023-05-12T01:33:47.714Z,35.84
2023-05-12T01:34:47.685Z,35.94
2023-05-12T01:35:47.715Z,35.90
2023-05-12T01:36:47.722Z,35.88
2023-05-12T01:37:47.754Z,35.91
2023-05-12T01:38:47.787Z,35.83
2023-05-12T01:39:47.813Z,35.79
2023-05-12T01:40:47.826Z,35.77
2023-05-12T01:41:47.860Z,35.90
2023-05-12T01:42:47.887Z,35.84
2023-05-12T01:43:47.897Z,35.78
2023-05-12T01:44:47.974Z,35.84
2023-05-12T01:45:47.975Z,35.84
2023-05-12T01:46:48.032Z,35.86
2023-05-12T01:47:48.157Z,35.92
2023-05-12T01:48:48.040Z,35.89
2023-05-12T01:49:48.069Z,35.92
2023-05-12T01:50:48.153Z,35.93
2023-05-12T01:51:48.112Z,35.86
2023-05-12T01:52:48.146Z,35.80
2023-05-12T01:53:48.150Z,35.80
2023-05-12T01:54:48.119Z,35.84
2023-05-12T01:55:48.099Z,35.76
2023-05-12T01:56:48.107Z,35.72
2023-05-12T01:57:48.082Z,35.74
2023-05-12T01:58:48.094Z,35.71
2023-05-12T01:59:48.059Z,35.82
2023-05-12T02:00:48.024Z,35.71
2023-05-12T02:01:48.061Z,35.80
2023-05-12T02:02:48.065Z,35.79
2023-05-12T02:03:48.108Z,35.72
2023-05-12T02:04:47.964Z,35.71
2023-05-12T02:05:47.954Z,35.73
2023-05-12T02:06:47.966Z,35.66
2023-05-12T02:07:47.999Z,35.73
2023-05-12T02:08:48.098Z,35.71
2023-05-12T02:09:48.068Z,35.74
2023-05-12T02:10:48.067Z,35.82
2023-05-12T02:11:48.097Z,35.85
2023-05-12T02:12:48.119Z,35.84
2023-05-12T02:13:48.151Z,35.76
2023-05-12T02:14:48.186Z,35.72
2023-05-12T02:15:48.210Z,35.79
2023-05-12T02:16:48.392Z,35.80
2023-05-12T02:17:48.314Z,35.80
2023-05-12T02:18:48.398Z,35.78
2023-05-12T02:19:48.337Z,35.77
2023-05-12T02:20:48.376Z,35.80
2023-05-12T02:21:48.462Z,35.80
2023-05-12T02:22:48.423Z,35.81
2023-05-12T02:23:48.453Z,35.80
2023-05-12T02:24:48.493Z,35.85
2023-05-12T02:25:48.520Z,35.85
2023-05-12T02:26:48.547Z,35.86
2023-05-12T02:27:48.581Z,35.89
2023-05-12T02:28:48.599Z,35.92
2023-05-12T02:29:48.624Z,35.89
2023-05-12T02:30:48.710Z,35.88
2023-05-12T02:31:48.718Z,35.83
2023-05-12T02:32:48.783Z,35.83
2023-05-12T02:33:48.761Z,35.89
2023-05-12T02:34:48.795Z,35.90
2023-05-12T02:35:48.807Z,35.79
2023-05-12T02:36:48.843Z,35.74
2023-05-12T02:37:48.877Z,35.83
2023-05-12T02:38:48.909Z,35.77
2023-05-12T02:39:48.918Z,35.88
2023-05-12T02:40:48.953Z,35.85
2023-05-12T02:41:48.976Z,35.73
2023-05-12T02:42:49.009Z,35.77
2023-05-12T02:43:49.029Z,35.79
2023-05-12T02:44:49.060Z,35.74
2023-05-12T02:45:49.126Z,35.69
2023-05-12T02:46:49.154Z,35.80
2023-05-12T02:47:49.196Z,35.77
2023-05-12T02:48:49.176Z,35.81
2023-05-12T02:49:49.212Z,35.83
2023-05-12T02:50:49.242Z,35.82
2023-05-12T02:51:49.268Z,35.69
2023-05-12T02:52:49.301Z,35.75
2023-05-12T02:53:49.287Z,35.76
2023-05-12T02:54:49.267Z,35.71
2023-05-12T02:55:49.238Z,35.66
2023-05-12T02:56:49.217Z,35.68
2023-05-12T02:57:49.194Z,35.68
2023-05-12T02:58:49.191Z,35.78
2023-05-12T02:59:49.178Z,35.80
2023-05-12T03:00:56.897Z,35.73
2023-05-12T03:01:50.190Z,35.85
2023-05-12T03:02:49.172Z,35.80
2023-05-12T03:03:49.230Z,35.74
2023-05-12T03:04:49.057Z,35.66
2023-05-12T03:05:49.050Z,35.64
2023-05-12T03:06:49.032Z,35.81
2023-05-12T03:07:49.009Z,35.71
2023-05-12T03:08:49.016Z,35.78
2023-05-12T03:09:48.992Z,35.81
2023-05-12T03:10:48.971Z,35.79
2023-05-12T03:11:48.955Z,35.75
2023-05-12T03:12:48.938Z,35.82
2023-05-12T03:13:48.977Z,35.72
2023-05-12T03:14:49.000Z,35.73
2023-05-12T03:15:49.034Z,35.69
2023-05-12T03:16:49.133Z,35.62
2023-05-12T03:17:49.107Z,35.69
2023-05-12T03:18:49.164Z,35.71
2023-05-12T03:19:49.047Z,35.68
2023-05-12T03:20:49.025Z,35.70
2023-05-12T03:21:49.013Z,35.78
2023-05-12T03:22:49.007Z,35.77
2023-05-12T03:23:48.987Z,35.66
2023-05-12T03:24:48.982Z,35.72
2023-05-12T03:25:48.958Z,35.74
2023-05-12T03:26:48.938Z,35.73
2023-05-12T03:27:48.927Z,35.73
2023-05-12T03:28:48.920Z,35.82
2023-05-12T03:29:48.901Z,35.83
2023-05-12T03:30:48.888Z,35.76
2023-05-12T03:31:48.948Z,35.80
2023-05-12T03:32:48.904Z,35.77
2023-05-12T03:33:48.845Z,35.76
2023-05-12T03:34:48.834Z,35.73
2023-05-12T03:35:48.828Z,35.80
2023-05-12T03:36:48.835Z,35.82
2023-05-12T03:37:48.882Z,35.82
2023-05-12T03:38:48.900Z,35.83
2023-05-12T03:39:48.949Z,35.78
2023-05-12T03:40:48.989Z,35.82
2023-05-12T03:41:49.024Z,35.82
2023-05-12T03:42:49.058Z,35.75
2023-05-12T03:43:49.096Z,35.73
2023-05-12T03:44:49.114Z,35.69
2023-05-12T03:45:49.143Z,35.70
2023-05-12T03:46:49.225Z,35.68
2023-05-12T03:47:49.282Z,35.79
2023-05-12T03:48:49.247Z,35.83
2023-05-12T03:49:49.288Z,35.77
2023-05-12T03:50:49.321Z,35.78
2023-05-12T03:51:49.349Z,35.73
2023-05-12T03:52:49.384Z,35.58
2023-05-12T03:53:49.362Z,35.60
2023-05-12T03:54:49.360Z,35.58
2023-05-12T03:55:49.352Z,35.55
2023-05-12T03:56:49.338Z,35.59
2023-05-12T03:57:49.322Z,35.59
2023-05-12T03:58:49.314Z,35.68
2023-05-12T03:59:49.309Z,35.74
2023-05-12T04:00:49.305Z,35.69
2023-05-12T04:01:49.344Z,35.56
2023-05-12T04:02:49.359Z,35.60
2023-05-12T04:03:49.417Z,35.76
2023-05-12T04:04:49.260Z,35.75
2023-05-12T04:05:49.254Z,35.76
2023-05-12T04:06:49.273Z,35.67
2023-05-12T04:07:49.243Z,35.72
2023-05-12T04:08:49.232Z,35.72
2023-05-12T04:09:49.220Z,35.80
2023-05-12T04:10:49.200Z,35.60
2023-05-12T04:11:49.244Z,35.62
2023-05-12T04:12:49.273Z,35.71
2023-05-12T04:13:49.294Z,35.57
2023-05-12T04:14:49.335Z,35.60
2023-05-12T04:15:49.361Z,35.60
2023-05-12T04:16:49.497Z,35.58
2023-05-12T04:17:49.468Z,35.49
2023-05-12T04:18:49.531Z,35.59
2023-05-12T04:19:49.500Z,35.64
2023-05-12T04:20:49.525Z,35.75
2023-05-12T04:21:49.578Z,35.65
2023-05-12T04:22:49.594Z,35.67
2023-05-12T04:23:49.629Z,35.52
2023-05-12T04:24:49.672Z,35.54
2023-05-12T04:25:49.681Z,35.56
2023-05-12T04:26:49.720Z,35.58
2023-05-12T04:27:49.761Z,35.60
2023-05-12T04:28:49.801Z,35.61
2023-05-12T04:29:49.813Z,35.59
2023-05-12T04:30:49.852Z,35.64
2023-05-12T04:31:49.929Z,35.61
2023-05-12T04:32:49.966Z,35.62
2023-05-12T04:33:49.928Z,35.51
2023-05-12T04:34:49.972Z,35.55
2023-05-12T04:35:50.008Z,35.54
2023-05-12T04:36:50.030Z,35.60
2023-05-12T04:37:50.058Z,35.53
2023-05-12T04:38:50.096Z,35.59
2023-05-12T04:39:50.124Z,35.61
2023-05-12T04:40:50.161Z,35.58
2023-05-12T04:41:50.193Z,35.60
2023-05-12T04:42:50.176Z,35.64
2023-05-12T04:44:50.183Z,35.65
2023-05-12T04:45:50.168Z,35.66
2023-05-12T04:46:50.132Z,35.68
2023-05-12T04:47:50.121Z,35.71
2023-05-12T04:48:50.106Z,35.70
2023-05-12T04:49:50.098Z,35.61
2023-05-12T04:50:50.092Z,35.63
2023-05-12T04:51:50.076Z,35.69
2023-05-12T04:52:50.064Z,35.56
2023-05-12T04:53:50.063Z,35.58
2023-05-12T04:54:50.044Z,35.58
2023-05-12T04:55:50.028Z,35.54
2023-05-12T04:56:50.030Z,35.65
2023-05-12T04:57:50.001Z,35.59
2023-05-12T04:58:49.989Z,35.54
2023-05-12T04:59:49.981Z,35.57
2023-05-12T05:00:49.958Z,35.78
2023-05-12T05:01:49.997Z,35.85
2023-05-12T05:02:49.986Z,35.79
2023-05-12T05:03:50.110Z,35.68
2023-05-12T05:04:49.936Z,35.70
2023-05-12T05:05:49.969Z,35.62
2023-05-12T05:06:50.025Z,35.60
2023-05-12T05:07:50.026Z,35.63
2023-05-12T05:08:50.077Z,35.61
2023-05-12T05:09:50.094Z,35.64
2023-05-12T05:10:50.133Z,35.51
2023-05-12T05:11:50.161Z,35.66
2023-05-12T05:12:50.174Z,35.63
2023-05-12T05:13:50.234Z,35.57
2023-05-12T05:14:50.244Z,35.56
2023-05-12T05:15:50.324Z,35.52
2023-05-12T05:16:50.349Z,35.50
2023-05-12T05:17:50.404Z,35.47
2023-05-12T05:18:50.396Z,35.49
2023-05-12T05:19:58.517Z,35.49
2023-05-12T05:20:57.356Z,35.58
2023-05-12T05:21:51.375Z,35.51
2023-05-12T05:22:50.361Z,35.55
2023-05-12T05:23:50.350Z,35.57
2023-05-12T05:24:50.332Z,35.48
2023-05-12T05:25:50.299Z,35.61
2023-05-12T05:26:50.292Z,35.55
2023-05-12T05:27:50.314Z,35.55
2023-05-12T05:28:50.260Z,35.50
2023-05-12T05:29:50.263Z,35.70
2023-05-12T05:30:50.263Z,35.66
2023-05-12T05:31:50.262Z,35.70
2023-05-12T05:32:50.225Z,35.64
2023-05-12T05:33:50.263Z,35.68
2023-05-12T05:34:50.174Z,35.69
2023-05-12T05:35:50.165Z,35.71
2023-05-12T05:36:50.142Z,35.72
2023-05-12T05:37:50.171Z,35.87
2023-05-12T05:38:50.112Z,36.13
2023-05-12T05:39:50.109Z,36.63
2023-05-12T05:40:53.630Z,37.44
2023-05-12T05:41:50.082Z,37.50
2023-05-12T05:42:50.074Z,37.66
2023-05-12T05:43:50.047Z,38.31
2023-05-12T05:44:50.034Z,38.65
2023-05-12T05:45:50.297Z,38.77
2023-05-12T05:46:49.997Z,39.02
2023-05-12T05:47:50.068Z,40.08
2023-05-12T05:48:49.948Z,39.76
2023-05-12T05:49:49.954Z,39.74
2023-05-12T05:50:49.919Z,39.62
2023-05-12T05:51:49.895Z,39.79
2023-05-12T05:52:49.893Z,40.01
2023-05-12T05:53:49.923Z,39.74
2023-05-12T05:54:49.828Z,39.76
2023-05-12T05:55:49.805Z,39.87
2023-05-12T05:56:49.791Z,39.97
2023-05-12T05:57:49.792Z,40.00
2023-05-12T05:58:49.728Z,40.05
2023-05-12T05:59:49.724Z,40.06
2023-05-12T06:00:49.693Z,40.10
2023-05-12T06:01:49.800Z,40.13
2023-05-12T06:02:49.945Z,40.07
2023-05-12T06:03:49.767Z,40.22
2023-05-12T06:04:49.598Z,40.22
2023-05-12T06:05:49.568Z,40.37
2023-05-12T06:06:49.550Z,40.34
2023-05-12T06:07:49.520Z,40.31
2023-05-12T06:08:49.479Z,40.30
2023-05-12T06:09:49.467Z,40.25
2023-05-12T06:10:49.433Z,40.40
2023-05-12T06:11:49.397Z,40.44
2023-05-12T06:12:49.444Z,40.55
2023-05-12T06:13:49.365Z,40.59
2023-05-12T06:14:49.313Z,40.57
2023-05-12T06:15:49.280Z,40.62
2023-05-12T06:16:49.323Z,40.61
2023-05-12T06:17:49.261Z,40.72
2023-05-12T06:18:49.228Z,40.79
2023-05-12T06:19:49.137Z,40.84
2023-05-12T06:20:49.113Z,40.82
2023-05-12T06:21:49.112Z,40.84
2023-05-12T06:22:49.055Z,40.91
2023-05-12T06:23:49.017Z,40.87
2023-05-12T06:24:48.984Z,40.92
2023-05-12T06:25:48.947Z,40.98
2023-05-12T06:26:48.920Z,41.07
2023-05-12T06:27:48.885Z,41.14
2023-05-12T06:28:48.848Z,41.03
2023-05-12T06:29:48.835Z,41.07
2023-05-12T06:30:48.869Z,41.03
2023-05-12T06:31:48.933Z,41.13
2023-05-12T06:32:49.038Z,41.18
2023-05-12T06:33:48.956Z,41.18
2023-05-12T06:34:48.983Z,41.22
2023-05-12T06:35:49.055Z,41.24
2023-05-12T06:36:49.040Z,41.22
2023-05-12T06:37:49.086Z,41.25
2023-05-12T06:38:49.134Z,41.35
2023-05-12T06:39:49.142Z,41.40
2023-05-12T06:40:49.171Z,41.61
2023-05-12T06:41:49.200Z,42.00
2023-05-12T06:42:49.366Z,41.69
2023-05-12T06:43:49.305Z,41.51
2023-05-12T06:44:49.328Z,41.25
2023-05-12T06:45:49.410Z,41.09
2023-05-12T06:46:49.463Z,40.48
2023-05-12T06:47:49.446Z,40.38
2023-05-12T06:48:49.549Z,40.06
2023-05-12T06:49:49.458Z,39.43
2023-05-12T06:50:49.485Z,39.31
2023-05-12T06:51:49.521Z,39.60
2023-05-12T06:52:49.549Z,39.30
2023-05-12T06:53:49.566Z,39.30
2023-05-12T06:54:49.546Z,39.32
2023-05-12T06:55:49.551Z,38.75
2023-05-12T06:56:49.554Z,37.98
2023-05-12T06:57:49.531Z,38.17
2023-05-12T06:58:49.573Z,38.16
2023-05-12T06:59:49.452Z,38.08
2023-05-12T07:00:49.391Z,38.22
2023-05-12T07:01:49.507Z,38.24
2023-05-12T07:02:49.327Z,38.49
2023-05-12T07:03:49.348Z,38.37
2023-05-12T07:04:49.235Z,38.32
2023-05-12T07:05:49.272Z,38.30
2023-05-12T07:06:49.165Z,38.27
2023-05-12T07:07:49.147Z,38.39
2023-05-12T07:08:49.100Z,38.35
2023-05-12T07:09:49.107Z,38.20
2023-05-12T07:10:49.128Z,38.23
2023-05-12T07:11:49.097Z,38.15
2023-05-12T07:12:49.074Z,38.06
2023-05-12T07:13:49.003Z,38.10
2023-05-12T07:14:48.962Z,38.21
2023-05-12T07:15:48.941Z,38.03
2023-05-12T07:16:48.896Z,37.89
2023-05-12T07:17:48.988Z,37.98
2023-05-12T07:18:49.525Z,38.01
2023-05-12T07:19:48.804Z,37.84
2023-05-12T07:20:48.740Z,37.76
2023-05-12T07:21:48.751Z,37.87
2023-05-12T07:22:48.676Z,37.65
2023-05-12T07:23:48.637Z,37.85
2023-05-12T07:24:48.660Z,37.86
2023-05-12T07:25:48.645Z,37.72
2023-05-12T07:26:48.521Z,37.77
2023-05-12T07:27:48.508Z,37.68
2023-05-12T07:28:48.482Z,37.61
2023-05-12T07:29:48.452Z,37.56
2023-05-12T07:30:48.452Z,37.69
2023-05-12T07:31:48.379Z,37.60
2023-05-12T07:32:48.388Z,37.49
2023-05-12T07:33:48.317Z,37.58
2023-05-12T07:34:48.315Z,37.48
2023-05-12T07:35:48.302Z,37.45
2023-05-12T07:36:48.261Z,38.51
2023-05-12T07:37:48.293Z,39.00
2023-05-12T07:38:48.221Z,39.10
2023-05-12T07:39:48.212Z,39.15
2023-05-12T07:40:48.261Z,39.47
2023-05-12T07:41:48.181Z,39.99
2023-05-12T07:42:48.175Z,39.99
2023-05-12T07:43:55.187Z,40.25
2023-05-12T07:44:48.093Z,41.12
2023-05-12T07:45:48.074Z,41.10
2023-05-12T07:46:48.162Z,41.88
2023-05-12T07:47:48.084Z,41.78
2023-05-12T07:48:47.974Z,42.02
2023-05-12T07:49:47.947Z,42.49
2023-05-12T07:50:47.932Z,42.40
2023-05-12T07:51:47.939Z,42.52
2023-05-12T07:52:48.016Z,42.41
2023-05-12T07:53:47.892Z,41.78
2023-05-12T07:54:47.741Z,41.89
2023-05-12T07:55:47.699Z,41.55
2023-05-12T07:56:47.673Z,41.56
2023-05-12T07:57:47.613Z,41.49
2023-05-12T07:58:47.785Z,41.63
2023-05-12T07:59:47.554Z,41.74
2023-05-12T08:00:47.472Z,41.76
2023-05-12T08:01:47.499Z,41.78
2023-05-12T08:02:47.778Z,41.79
2023-05-12T08:03:47.436Z,41.65
2023-05-12T08:04:47.309Z,41.61
2023-05-12T08:05:47.270Z,41.36
2023-05-12T08:06:47.211Z,41.80
2023-05-12T08:07:47.196Z,41.57
2023-05-12T08:08:47.151Z,41.74
2023-05-12T08:09:47.076Z,41.72
2023-05-12T08:10:47.117Z,41.84
2023-05-12T08:11:50.017Z,41.65
2023-05-12T08:12:46.940Z,41.68
2023-05-12T08:13:46.889Z,40.72
2023-05-12T08:14:46.854Z,41.22
2023-05-12T08:15:46.868Z,40.49
2023-05-12T08:16:46.770Z,41.28
2023-05-12T08:17:47.566Z,41.47
2023-05-12T08:18:46.700Z,41.52
2023-05-12T08:19:46.574Z,41.44
2023-05-12T08:20:46.612Z,41.35
2023-05-12T08:21:46.492Z,41.47
2023-05-12T08:22:46.421Z,41.51
2023-05-12T08:23:46.376Z,40.35
2023-05-12T08:24:46.347Z,41.25
2023-05-12T08:25:46.490Z,41.50
2023-05-12T08:26:46.237Z,41.54
2023-05-12T08:27:46.190Z,41.21
2023-05-12T08:28:46.155Z,41.07
2023-05-12T08:29:46.112Z,40.78
2023-05-12T08:30:46.149Z,40.18
2023-05-12T08:31:46.019Z,39.75
2023-05-12T08:32:46.060Z,39.19
2023-05-12T08:33:48.296Z,39.35
2023-05-12T08:34:46.003Z,39.14
2023-05-12T08:35:45.955Z,39.14
2023-05-12T08:36:45.851Z,38.93
2023-05-12T08:37:45.822Z,38.88
2023-05-12T08:38:45.766Z,38.75
2023-05-12T08:39:46.492Z,38.74
2023-05-12T08:40:46.470Z,38.64
2023-05-12T08:41:45.720Z,38.68
2023-05-12T08:42:45.999Z,38.50
2023-05-12T08:43:45.523Z,38.38
2023-05-12T08:44:45.703Z,38.24
2023-05-12T08:45:45.662Z,38.09
2023-05-12T08:46:45.481Z,37.60
2023-05-12T08:47:45.593Z,37.67
2023-05-12T08:48:46.006Z,37.77
2023-05-12T08:49:45.497Z,37.75
2023-05-12T08:50:45.275Z,37.90
2023-05-12T08:51:48.072Z,37.73
2023-05-12T08:52:46.114Z,37.85
2023-05-12T08:53:45.101Z,38.09
2023-05-12T08:54:55.060Z,38.19
2023-05-12T08:55:57.088Z,38.19
2023-05-12T08:57:44.910Z,38.29
2023-05-12T08:58:44.872Z,38.27
2023-05-12T08:59:44.858Z,38.35
2023-05-12T09:00:44.857Z,38.37
2023-05-12T09:01:44.833Z,38.42
2023-05-12T09:02:52.979Z,38.41
2023-05-12T09:03:45.658Z,38.47
2023-05-12T09:04:44.657Z,38.56
2023-05-12T09:05:44.586Z,38.61
2023-05-12T09:06:45.030Z,38.80
2023-05-12T09:07:44.465Z,38.75
2023-05-12T09:08:44.405Z,38.77
2023-05-12T09:09:44.370Z,38.96
2023-05-12T09:10:44.337Z,39.00
2023-05-12T09:11:44.274Z,39.02
2023-05-12T09:12:44.209Z,39.29
2023-05-12T09:13:44.205Z,39.04
2023-05-12T09:14:44.109Z,38.94
2023-05-12T09:15:44.068Z,38.91
2023-05-12T09:16:44.106Z,38.88
2023-05-12T09:17:44.006Z,38.94
2023-05-12T09:18:43.968Z,39.04
2023-05-12T09:19:43.857Z,38.89
2023-05-12T09:20:43.846Z,39.10
2023-05-12T09:21:43.751Z,39.31
2023-05-12T09:22:43.722Z,39.35
2023-05-12T09:23:43.643Z,39.40
2023-05-12T09:24:43.613Z,39.55
2023-05-12T09:25:43.572Z,39.70
2023-05-12T09:26:43.991Z,39.83
2023-05-12T09:27:43.438Z,39.76
2023-05-12T09:28:43.407Z,39.66
2023-05-12T09:29:55.571Z,39.80
2023-05-12T09:30:44.545Z,39.74
2023-05-12T09:31:43.280Z,39.81
2023-05-12T09:32:43.216Z,39.80
2023-05-12T09:33:43.162Z,39.49
2023-05-12T09:34:43.118Z,39.77
2023-05-12T09:35:43.072Z,39.76
2023-05-12T09:36:42.997Z,39.78
2023-05-12T09:37:42.964Z,39.76
2023-05-12T09:38:42.932Z,39.97
2023-05-12T09:39:42.856Z,39.99
2023-05-12T09:40:42.817Z,39.95
2023-05-12T09:41:42.736Z,40.44
2023-05-12T09:42:42.694Z,40.90
2023-05-12T09:43:42.662Z,40.40
2023-05-12T09:44:42.593Z,40.38
2023-05-12T09:45:42.587Z,40.01
2023-05-12T09:46:42.535Z,39.89
2023-05-12T09:47:42.465Z,39.83
2023-05-12T09:48:42.615Z,39.64
2023-05-12T09:49:42.369Z,39.86
2023-05-12T09:50:47.446Z,39.59
2023-05-12T09:51:42.203Z,39.30
2023-05-12T09:52:42.430Z,39.42
2023-05-12T09:53:42.202Z,39.49
2023-05-12T09:54:42.071Z,39.50
2023-05-12T09:55:42.553Z,39.59
2023-05-12T09:56:42.651Z,39.46
2023-05-12T09:57:42.577Z,39.57
2023-05-12T09:58:42.201Z,39.68
2023-05-12T09:59:43.789Z,39.81
2023-05-12T10:01:41.962Z,39.87
2023-05-12T10:02:41.913Z,40.00
2023-05-12T10:03:41.776Z,40.03
2023-05-12T10:04:41.798Z,40.04
2023-05-12T10:05:41.598Z,40.04
2023-05-12T10:06:42.590Z,40.05
2023-05-12T10:07:41.538Z,40.32
2023-05-12T10:08:42.054Z,40.27
2023-05-12T10:09:41.352Z,40.32
2023-05-12T10:10:41.333Z,40.33
2023-05-12T10:11:41.376Z,40.48
2023-05-12T10:12:41.248Z,40.49
2023-05-12T10:13:41.258Z,40.49
2023-05-12T10:14:41.101Z,40.50
2023-05-12T10:15:41.053Z,40.29
2023-05-12T10:16:41.003Z,40.44
2023-05-12T10:17:41.659Z,40.55
2023-05-12T10:18:40.941Z,40.32
2023-05-12T10:19:40.832Z,40.62
2023-05-12T10:20:40.756Z,40.52
2023-05-12T10:21:40.781Z,40.77
2023-05-12T10:22:40.675Z,40.65
2023-05-12T10:23:40.590Z,40.74
2023-05-12T10:24:40.545Z,40.60
2023-05-12T10:25:40.580Z,40.81
2023-05-12T10:26:40.415Z,40.97
2023-05-12T10:27:40.336Z,40.58
2023-05-12T10:28:40.307Z,40.81
2023-05-12T10:29:40.247Z,40.98
2023-05-12T10:30:40.273Z,40.78
2023-05-12T10:31:40.247Z,40.86
2023-05-12T10:32:40.160Z,40.83
2023-05-12T10:33:40.012Z,40.96
2023-05-12T10:34:39.929Z,40.78
2023-05-12T10:35:39.900Z,40.65
2023-05-12T10:36:40.549Z,41.39
2023-05-12T10:37:39.745Z,42.25
2023-05-12T10:38:39.690Z,41.67
2023-05-12T10:39:39.681Z,41.18
2023-05-12T10:40:39.579Z,41.09
2023-05-12T10:41:39.621Z,40.64
2023-05-12T10:42:39.475Z,40.73
2023-05-12T10:43:39.394Z,40.33
2023-05-12T10:44:39.394Z,39.75
2023-05-12T10:45:39.290Z,39.20
2023-05-12T10:46:39.231Z,39.11
2023-05-12T10:47:39.173Z,38.89
2023-05-12T10:48:39.097Z,38.77
2023-05-12T10:49:39.041Z,38.64
2023-05-12T10:50:38.961Z,38.71
2023-05-12T10:51:39.529Z,38.69
2023-05-12T10:52:39.195Z,38.66
2023-05-12T10:53:49.242Z,38.64
2023-05-12T10:54:38.756Z,38.69
2023-05-12T10:55:39.574Z,38.99
2023-05-12T10:56:38.881Z,39.00
2023-05-12T10:57:38.925Z,39.00
2023-05-12T10:58:38.742Z,39.14
2023-05-12T10:59:38.855Z,39.34
2023-05-12T11:00:38.958Z,39.18
2023-05-12T11:01:39.310Z,39.00
2023-05-12T11:02:39.658Z,39.37
2023-05-12T11:03:38.488Z,39.24
2023-05-12T11:04:38.636Z,39.40
2023-05-12T11:05:38.341Z,39.47
2023-05-12T11:06:39.147Z,39.60
2023-05-12T11:07:38.108Z,39.48
2023-05-12T11:08:38.401Z,39.54
2023-05-12T11:09:45.253Z,39.22
2023-05-12T11:10:39.748Z,39.47
2023-05-12T11:11:38.492Z,39.32
2023-05-12T11:12:38.153Z,39.56
2023-05-12T11:13:37.667Z,39.73
2023-05-12T11:14:37.615Z,39.95
2023-05-12T11:15:38.177Z,40.10
2023-05-12T11:16:37.513Z,40.05
2023-05-12T11:17:37.478Z,40.11
2023-05-12T11:18:37.402Z,40.07
2023-05-12T11:19:37.355Z,40.25
2023-05-12T11:20:37.299Z,40.37
2023-05-12T11:21:38.093Z,40.50
2023-05-12T11:22:37.331Z,40.46
2023-05-12T11:23:37.272Z,40.63
2023-05-12T11:24:37.234Z,41.26
2023-05-12T11:25:37.307Z,40.84
2023-05-12T11:26:37.138Z,40.72
2023-05-12T11:27:37.100Z,41.22
2023-05-12T11:28:37.212Z,41.31
2023-05-12T11:29:37.328Z,41.09
2023-05-12T11:30:37.125Z,40.97
2023-05-12T11:31:37.064Z,40.74
2023-05-12T11:32:37.003Z,40.82
2023-05-12T11:33:37.039Z,40.20
2023-05-12T11:34:36.908Z,41.19
2023-05-12T11:35:36.840Z,39.75
2023-05-12T11:36:37.625Z,39.87
2023-05-12T11:37:36.787Z,40.18
2023-05-12T11:38:36.663Z,39.72
2023-05-12T11:39:36.620Z,39.58
2023-05-12T11:40:36.554Z,39.48
2023-05-12T11:41:36.480Z,39.49
2023-05-12T11:42:36.434Z,39.44
2023-05-12T11:43:36.371Z,39.36
2023-05-12T11:44:36.341Z,39.13
2023-05-12T11:45:36.321Z,39.17
2023-05-12T11:46:36.227Z,39.16
2023-05-12T11:47:36.194Z,38.98
2023-05-12T11:48:36.112Z,39.02
2023-05-12T11:49:36.062Z,38.92
2023-05-12T11:50:36.025Z,38.95
2023-05-12T11:51:35.948Z,38.82
2023-05-12T11:52:35.903Z,38.75
2023-05-12T11:53:35.859Z,38.80
2023-05-12T11:54:35.796Z,38.82
2023-05-12T11:55:35.732Z,38.69
2023-05-12T11:56:35.730Z,38.69
2023-05-12T11:57:35.735Z,38.69
2023-05-12T11:58:35.832Z,38.60
2023-05-12T11:59:35.549Z,38.51
2023-05-12T12:00:35.543Z,38.49
2023-05-12T12:01:36.094Z,38.39
2023-05-12T12:02:35.501Z,38.33
2023-05-12T12:03:35.599Z,38.29
2023-05-12T12:04:35.360Z,38.19
2023-05-12T12:05:35.182Z,38.22
2023-05-12T12:06:35.135Z,38.23
2023-05-12T12:07:35.069Z,38.20
2023-05-12T12:08:35.042Z,38.22
2023-05-12T12:09:34.971Z,38.20
2023-05-12T12:10:34.881Z,38.15
2023-05-12T12:11:34.841Z,38.17
2023-05-12T12:12:34.785Z,38.12
2023-05-12T12:13:34.709Z,37.94
2023-05-12T12:14:35.693Z,37.93
2023-05-12T12:15:34.603Z,37.96
2023-05-12T12:16:34.619Z,37.87
2023-05-12T12:17:34.571Z,37.82
2023-05-12T12:18:34.478Z,37.83
2023-05-12T12:19:34.372Z,37.66
2023-05-12T12:20:34.282Z,37.74
2023-05-12T12:21:34.236Z,37.65
2023-05-12T12:22:34.398Z,37.68
2023-05-12T12:23:47.342Z,37.73
2023-05-12T12:24:35.078Z,37.68
2023-05-12T12:25:34.057Z,37.63
2023-05-12T12:26:33.937Z,37.58
2023-05-12T12:27:33.856Z,37.54
2023-05-12T12:28:33.824Z,37.48
2023-05-12T12:29:33.784Z,37.38
2023-05-12T12:30:33.711Z,37.40
2023-05-12T12:31:33.662Z,37.45
2023-05-12T12:32:33.639Z,37.36
2023-05-12T12:33:33.612Z,37.30
2023-05-12T12:34:33.473Z,37.37
2023-05-12T12:35:33.470Z,37.30
2023-05-12T12:36:33.362Z,37.27
2023-05-12T12:37:33.293Z,37.18
2023-05-12T12:38:33.274Z,37.20
2023-05-12T12:39:33.170Z,37.20
2023-05-12T12:40:33.110Z,37.24
2023-05-12T12:41:33.060Z,37.21
2023-05-12T12:42:32.989Z,37.07
2023-05-12T12:43:32.971Z,37.01
2023-05-12T12:44:32.879Z,36.99
2023-05-12T12:45:32.850Z,37.08
2023-05-12T12:46:32.780Z,37.13
2023-05-12T12:47:32.784Z,37.10
2023-05-12T12:48:32.629Z,37.17
2023-05-12T12:49:32.643Z,37.14
2023-05-12T12:50:32.570Z,37.10
2023-05-12T12:51:44.575Z,37.01
2023-05-12T12:52:33.418Z,37.11
2023-05-12T12:53:32.357Z,37.13
2023-05-12T12:54:32.342Z,37.20
2023-05-12T12:55:32.409Z,37.13